Ashland, MT (59004)

6:26 PM MDT on August 31, 2015 (GMT -0600)
Colstrip | | Change Station
CLOSE
Current Station
Personal Weather Station
Location: Colstrip, MT
Elevation: 3320 ft
Nearby Weather Stations

Elev 3320 ft 45.88 °N, 106.64 °W | Updated 13 minutes ago

Clear
Clear
81.9 °F
Feels Like 80 °F
N
2.7
Wind Variable Wind from West

Today
High -- | Low -- °F
--% Chance of Precip.
Yesterday
High -- | Low -- °F
Precip. -- in
6:25 AM 7:45 PM
Waning Gibbous, 93% visible
Pressure 29.81 in
Visibility 10.0 miles
Clouds Clear
Heat Index 80 °F
Dew Point 43 °F
Humidity 25%
Rainfall 0.00 in
Snow Depth Not available.
UV 1 out of 12
Pollen 9.80 out of 12
Air Quality Not available.
Flu Activity Not available.
METAR KMLS 312353Z AUTO 18006KT 10SM CLR 27/06 A2985 RMK AO2 SLP094 T02720061 10283 20222 56010
Pressure 29.81 in
Visibility 10.0 miles
Clouds Clear
Heat Index 80 °F
Dew Point 43 °F
Humidity 25%
Rainfall 0.00 in
Snow Depth Not available.
UV 1 out of 12
Pollen 9.80 out of 12
Air Quality Not available.
Flu Activity Not available.
METAR KMLS 312353Z AUTO 18006KT 10SM CLR 27/06 A2985 RMK AO2 SLP094 T02720061 10283 20222 56010

10-Day Weather Forecast

×

Almanac

Astronomy

Aug. 31, 2015 Rise Set
Actual Time
Civil Twilight
Nautical Twilight
Astronomical Twilight
Moon
Length of Visible Light
Length of Day
Tomorrow will be .
, % of the Moon is Illuminated

Today's Extremes

State Highs State Lows

Community

WunderPhotos

Upload Photos

1,851,405 photos uploaded!

WunderBlogs® & News

Nearby

Air Quality

  Air Quality AQ Index Pollutant
Not available.

Snow Depth

Station Depth Elevation

Earthquake Activity

City Distance Mag. Time & Date
Minimum magnitude displayed is 2.5.

Coastal Water Temperatures

Place Temperature

Stations

Nearby Weather Stations

Station Location Temp. Windchill Dew Point Humidity Wind Precip. Elev Updated Type